Time;durP1;ratioP1;P1;durP2;ratioP2;P2;SDS_P1;SDS_P2;PMS_P1;PMS_P2;Temp;Humidity;BMP_temperature;BMP_pressure;BME280_temperature;BME280_humidity;BME280_pressure;Samples;Min_cycle;Max_cycle;Signal;HPM_P1;HPM_P2
2022/01/01 00:01:48;;;;;;;20.00;12.00;;;;;;;8.57;91.90;98312.42;102778;1320;22601;-81
2022/01/01 00:04:15;;;;;;;20.30;11.30;;;;;;;8.55;91.78;98316.73;102766;1321;22679;-81
2022/01/01 00:06:42;;;;;;;22.60;12.90;;;;;;;8.55;91.98;98316.56;103080;1321;137987;-81
2022/01/01 00:09:09;;;;;;;20.50;11.80;;;;;;;8.56;91.73;98312.30;102990;1321;22347;-81
2022/01/01 00:11:36;;;;;;;19.80;11.10;;;;;;;8.56;92.05;98313.60;103605;1321;138092;-81
2022/01/01 00:14:03;;;;;;;18.60;11.90;;;;;;;8.56;91.92;98315.55;102503;1322;22695;-81
2022/01/01 00:16:29;;;;;;;20.10;10.80;;;;;;;8.56;92.09;98313.71;102238;1320;23142;-81
2022/01/01 00:18:57;;;;;;;18.90;10.90;;;;;;;8.57;92.22;98314.50;102411;1321;137540;-81
2022/01/01 00:21:23;;;;;;;16.40;10.40;;;;;;;8.58;92.48;98312.45;102567;1319;22610;-81
2022/01/01 00:23:49;;;;;;;17.90;10.70;;;;;;;8.58;92.23;98315.70;102069;1321;138278;-81
2022/01/01 00:26:16;;;;;;;16.10;10.00;;;;;;;8.57;92.32;98314.33;102368;1313;25271;-81
2022/01/01 00:28:42;;;;;;;15.90;9.60;;;;;;;8.56;92.32;98314.24;102132;1321;138386;-81
2022/01/01 00:31:10;;;;;;;16.60;9.90;;;;;;;8.55;92.57;98316.61;102207;1321;22587;-81
2022/01/01 00:33:51;;;;;;;17.30;11.20;;;;;;;8.53;92.74;98318.33;102338;1321;25318;-81
2022/01/01 00:36:17;;;;;;;18.40;10.60;;;;;;;8.53;92.79;98314.23;102037;1322;138240;-81
2022/01/01 00:38:44;;;;;;;16.90;9.30;;;;;;;8.52;92.90;98316.83;102317;1321;22589;-81
2022/01/01 00:41:11;;;;;;;19.30;9.90;;;;;;;8.52;92.95;98322.48;102145;1322;137959;-81
2022/01/01 00:43:37;;;;;;;17.40;9.90;;;;;;;8.52;93.03;98318.67;102319;1322;24185;-83
2022/01/01 00:46:04;;;;;;;18.40;10.40;;;;;;;8.51;93.01;98320.27;102142;1321;26512;-81
2022/01/01 00:48:30;;;;;;;15.90;9.90;;;;;;;8.50;93.35;98321.71;102036;1321;138881;-82
2022/01/01 00:50:59;;;;;;;17.20;9.40;;;;;;;8.49;93.42;98320.73;101980;1322;24276;-81
2022/01/01 00:53:25;;;;;;;16.90;9.10;;;;;;;8.48;93.52;98321.20;102121;1322;138063;-81
2022/01/01 00:55:51;;;;;;;18.80;10.20;;;;;;;8.47;93.47;98322.85;102360;1322;25116;-81
2022/01/01 00:58:18;;;;;;;18.50;10.30;;;;;;;8.47;93.79;98321.75;102397;1320;22747;-82
2022/01/01 01:00:44;;;;;;;19.60;11.60;;;;;;;8.48;93.80;98322.53;102227;1321;137814;-81
2022/01/01 01:03:17;;;;;;;19.70;11.80;;;;;;;8.49;93.78;98325.33;102089;1322;22604;-82
2022/01/01 01:05:46;;;;;;;20.70;12.20;;;;;;;8.48;93.83;98326.52;102401;1321;137463;-81
2022/01/01 01:08:14;;;;;;;19.80;11.70;;;;;;;8.48;93.73;98331.05;102358;1322;24223;-82
2022/01/01 01:10:44;;;;;;;21.20;12.50;;;;;;;8.47;93.90;98333.63;102449;1320;138831;-81
2022/01/01 01:13:10;;;;;;;;;;;;;;;8.46;94.03;98334.77;102566;1321;22611;-82
2022/01/01 01:15:37;;;;;;;22.60;12.80;;;;;;;8.46;94.34;98330.51;102329;1321;22827;-81
2022/01/01 01:18:07;;;;;;;23.10;12.80;;;;;;;8.46;94.36;98331.38;102001;1322;138049;-81
2022/01/01 01:20:34;;;;;;;18.60;11.00;;;;;;;8.46;94.58;98328.02;102231;1322;25206;-81
2022/01/01 01:23:00;;;;;;;23.20;13.90;;;;;;;8.48;94.41;98328.23;102239;1313;138262;-81
2022/01/01 01:25:37;;;;;;;22.60;12.80;;;;;;;8.48;94.29;98325.73;102461;1321;25288;-81
2022/01/01 01:28:08;;;;;;;21.60;13.40;;;;;;;8.50;94.23;98331.38;102375;1321;22606;-81
2022/01/01 01:30:36;;;;;;;21.60;13.70;;;;;;;8.50;94.31;98332.20;102166;1320;138436;-81
2022/01/01 01:33:03;;;;;;;25.00;14.00;;;;;;;8.52;94.57;98332.24;102333;1322;25351;-81
2022/01/01 01:35:29;;;;;;;24.50;14.20;;;;;;;8.54;94.43;98335.27;102173;1319;137379;-81
2022/01/01 01:38:10;;;;;;;21.70;12.70;;;;;;;8.54;94.47;98341.23;102466;1322;24210;-81
2022/01/01 01:40:36;;;;;;;24.40;13.70;;;;;;;8.53;94.43;98347.98;102532;1321;138415;-81
2022/01/01 01:43:09;;;;;;;22.10;13.30;;;;;;;8.55;94.57;98354.29;102234;1322;23070;-81
2022/01/01 01:45:36;;;;;;;22.40;12.50;;;;;;;8.55;94.67;98360.36;102256;1322;24112;-81
2022/01/01 01:48:02;;;;;;;23.30;13.30;;;;;;;8.55;94.50;98363.96;102091;1322;138113;-81
2022/01/01 01:50:30;;;;;;;24.60;14.70;;;;;;;8.56;94.57;98367.88;102304;1321;25255;-81
2022/01/01 01:52:59;;;;;;;21.30;13.30;;;;;;;8.57;94.66;98372.08;102183;1321;138080;-81
2022/01/01 01:55:28;;;;;;;24.40;13.30;;;;;;;8.56;94.69;98374.14;102362;1313;24349;-81
2022/01/01 01:57:55;;;;;;;;;;;;;;;8.56;94.39;98375.42;102443;1321;24466;-81
2022/01/01 02:03:12;;;;;;;22.60;13.90;;;;;;;8.54;94.57;98365.95;102385;1321;22599;-81
2022/01/01 02:05:40;;;;;;;19.20;13.20;;;;;;;8.54;94.59;98369.95;102179;1321;138020;-81
2022/01/01 02:08:07;;;;;;;22.10;13.50;;;;;;;8.54;94.73;98378.27;102358;1319;22633;-80
2022/01/01 02:10:34;;;;;;;21.50;13.50;;;;;;;8.55;94.80;98377.36;102161;1316;138191;-81
2022/01/01 02:13:11;;;;;;;24.20;15.20;;;;;;;8.57;94.81;98385.15;102282;1322;22620;-81
2022/01/01 02:18:23;;;;;;;23.90;14.90;;;;;;;8.58;94.96;98393.23;102331;1321;138805;-81
2022/01/01 02:20:50;;;;;;;29.20;17.20;;;;;;;8.58;95.19;98393.08;102388;1321;22592;-81
2022/01/01 02:23:18;;;;;;;23.20;14.90;;;;;;;8.58;95.14;98391.70;101937;1322;138795;-81
2022/01/01 02:25:48;;;;;;;22.00;14.10;;;;;;;8.58;95.36;98397.58;102221;1320;25315;-81
2022/01/01 02:28:14;;;;;;;23.80;14.90;;;;;;;8.60;95.48;98399.89;102506;1321;22607;-81
2022/01/01 02:30:41;;;;;;;24.10;15.00;;;;;;;8.61;95.20;98403.01;102142;1322;138367;-81
2022/01/01 02:33:07;;;;;;;19.50;13.30;;;;;;;8.63;95.39;98401.09;102206;1324;29362;-81
2022/01/01 02:35:34;;;;;;;22.20;13.20;;;;;;;8.64;95.52;98399.70;102105;1324;137667;-81
2022/01/01 02:38:02;;;;;;;22.70;13.50;;;;;;;8.66;95.40;98405.10;102172;1324;22602;-81
2022/01/01 02:40:29;;;;;;;22.80;14.70;;;;;;;8.66;95.28;98408.64;102211;1323;22724;-81
2022/01/01 02:42:56;;;;;;;23.40;14.40;;;;;;;8.67;95.32;98410.88;101908;1323;137989;-82
2022/01/01 02:45:22;;;;;;;24.90;13.90;;;;;;;8.68;95.56;98412.66;101951;1317;25757;-81
2022/01/01 02:47:48;;;;;;;21.20;12.60;;;;;;;8.69;95.45;98412.73;101531;1321;138001;-81
2022/01/01 02:50:14;;;;;;;22.30;14.10;;;;;;;8.69;95.48;98412.98;102283;1321;22620;-81
2022/01/01 02:52:41;;;;;;;22.80;12.90;;;;;;;8.70;95.50;98415.46;102344;1316;138881;-81
2022/01/01 02:55:08;;;;;;;20.40;13.00;;;;;;;8.72;95.55;98423.29;102156;1322;25328;-81
2022/01/01 02:57:34;;;;;;;23.50;14.80;;;;;;;8.73;95.70;98427.48;102449;1320;24289;-81
2022/01/01 03:00:00;;;;;;;20.20;13.30;;;;;;;8.74;95.66;98426.84;101922;1322;137238;-81
2022/01/01 03:02:27;;;;;;;20.00;12.20;;;;;;;8.74;95.60;98428.15;102396;1321;23307;-81
2022/01/01 03:04:53;;;;;;;19.70;13.30;;;;;;;8.73;95.73;98424.94;102173;1321;138275;-81
2022/01/01 03:07:19;;;;;;;17.90;12.30;;;;;;;8.74;95.78;98428.59;102419;1322;24240;-83
2022/01/01 03:09:45;;;;;;;18.00;11.30;;;;;;;8.74;95.72;98427.83;102248;1323;22741;-83
2022/01/01 03:12:14;;;;;;;17.10;11.20;;;;;;;8.76;95.86;98431.88;102223;1321;137927;-81
2022/01/01 03:14:40;;;;;;;20.00;12.00;;;;;;;8.77;95.83;98431.81;102361;1321;23910;-82
2022/01/01 03:17:07;;;;;;;16.40;10.90;;;;;;;8.79;95.97;98432.61;102272;1322;138388;-81
2022/01/01 03:19:35;;;;;;;15.70;10.90;;;;;;;8.80;95.91;98428.96;102346;1318;24203;-81
2022/01/01 03:22:02;;;;;;;16.20;10.20;;;;;;;8.82;95.84;98434.11;102281;1322;22645;-82
2022/01/01 03:24:43;;;;;;;17.00;10.90;;;;;;;8.83;95.96;98431.02;101843;1322;139757;-81
2022/01/01 03:27:09;;;;;;;15.20;10.00;;;;;;;8.84;96.08;98432.41;102269;1321;22696;-81
2022/01/01 03:29:35;;;;;;;15.50;10.00;;;;;;;8.85;95.91;98431.13;101956;1322;138209;-82
2022/01/01 03:32:05;;;;;;;14.90;9.00;;;;;;;8.86;96.02;98432.46;102387;1321;22694;-82
2022/01/01 03:34:32;;;;;;;13.10;8.90;;;;;;;8.86;95.96;98435.30;102347;1320;22617;-82
2022/01/01 03:37:02;;;;;;;12.60;8.00;;;;;;;8.87;96.03;98442.59;102237;1321;138046;-82
2022/01/01 03:39:28;;;;;;;11.70;8.50;;;;;;;8.88;95.95;98445.34;102318;1321;22640;-82
2022/01/01 03:41:55;;;;;;;11.60;8.00;;;;;;;8.90;96.00;98444.89;102210;1321;138115;-82
2022/01/01 03:44:21;;;;;;;13.20;7.60;;;;;;;8.91;96.03;98443.99;102519;1321;22641;-82
2022/01/01 03:46:48;;;;;;;11.80;7.10;;;;;;;8.92;96.03;98451.58;102016;1322;137342;-82
2022/01/01 03:49:16;;;;;;;8.90;6.40;;;;;;;8.93;96.11;98459.30;102263;1322;22643;-82
2022/01/01 03:51:46;;;;;;;10.80;7.00;;;;;;;8.92;96.14;98462.14;102382;1321;22586;-82
2022/01/01 03:54:26;;;;;;;10.70;7.50;;;;;;;8.92;96.05;98471.02;102130;1320;138432;-82
2022/01/01 03:56:53;;;;;;;12.30;7.70;;;;;;;8.91;96.14;98473.02;102302;1322;22663;-82
2022/01/01 03:59:20;;;;;;;9.20;6.10;;;;;;;8.92;96.11;98477.98;102278;1321;138724;-81
2022/01/01 04:01:47;;;;;;;9.00;6.80;;;;;;;8.94;96.14;98477.80;102371;1319;22639;-82
2022/01/01 04:04:13;;;;;;;8.50;5.80;;;;;;;8.95;96.07;98478.02;102103;1321;25286;-82
2022/01/01 04:06:39;;;;;;;8.90;6.20;;;;;;;8.95;96.01;98484.62;101916;1321;137750;-83
2022/01/01 04:09:05;;;;;;;7.90;6.40;;;;;;;8.96;95.89;98484.77;102048;1321;24191;-82
2022/01/01 04:11:32;;;;;;;9.90;6.40;;;;;;;8.97;96.10;98484.77;101926;1322;137625;-83
2022/01/01 04:13:58;;;;;;;8.70;5.90;;;;;;;8.98;96.14;98485.15;102275;1319;22613;-82
2022/01/01 04:16:24;;;;;;;7.60;6.20;;;;;;;8.97;96.11;98484.27;102357;1321;25292;-82
2022/01/01 04:18:50;;;;;;;6.80;5.30;;;;;;;8.98;96.00;98488.25;102156;1322;137971;-82
2022/01/01 04:21:17;;;;;;;7.40;5.70;;;;;;;8.97;96.08;98489.17;102165;1322;25204;-82
2022/01/01 04:23:46;;;;;;;8.60;5.70;;;;;;;8.98;96.26;98493.38;101760;1318;137530;-82
2022/01/01 04:26:12;;;;;;;6.30;4.50;;;;;;;8.99;96.08;98494.58;102324;1324;24222;-83
2022/01/01 04:28:41;;;;;;;7.80;5.70;;;;;;;8.99;96.08;98487.35;102191;1322;137964;-83
2022/01/01 04:31:08;;;;;;;7.30;5.40;;;;;;;9.00;96.23;98487.17;102403;1322;22673;-83
2022/01/01 04:33:34;;;;;;;8.00;5.60;;;;;;;9.01;96.30;98483.19;102507;1320;22653;-83
2022/01/01 04:36:00;;;;;;;6.60;5.30;;;;;;;9.02;96.21;98489.52;102312;1322;138335;-82
2022/01/01 04:38:37;;;;;;;6.30;4.80;;;;;;;9.05;96.25;98494.79;102415;1318;27187;-80
2022/01/01 04:41:09;;;;;;;7.70;5.00;;;;;;;9.07;96.22;98499.17;102350;1321;137758;-82
2022/01/01 04:43:36;;;;;;;7.70;4.30;;;;;;;9.08;96.31;98503.79;102354;1321;25199;-81
2022/01/01 04:46:02;;;;;;;6.50;4.60;;;;;;;9.09;96.16;98504.78;102333;1322;22596;-81
2022/01/01 04:48:28;;;;;;;6.00;4.40;;;;;;;9.12;96.21;98507.85;102297;1324;138090;-81
2022/01/01 04:50:54;;;;;;;7.80;4.30;;;;;;;9.14;96.27;98509.63;102131;1321;22662;-81
2022/01/01 04:53:21;;;;;;;5.10;3.70;;;;;;;9.16;96.26;98511.10;102298;1320;138023;-81
2022/01/01 04:55:48;;;;;;;5.10;3.70;;;;;;;9.18;96.11;98510.33;102502;1321;22597;-82
2022/01/01 04:58:15;;;;;;;6.40;3.70;;;;;;;9.18;96.10;98509.90;102483;1321;22590;-82
2022/01/01 05:00:42;;;;;;;6.50;4.10;;;;;;;9.18;96.03;98512.70;102176;1313;137165;-82
2022/01/01 05:03:08;;;;;;;5.60;4.00;;;;;;;9.17;96.08;98514.69;102281;1321;22585;-82
2022/01/01 05:05:38;;;;;;;5.00;3.90;;;;;;;9.17;96.14;98515.07;102254;1321;137560;-82
2022/01/01 05:08:05;;;;;;;5.40;4.00;;;;;;;9.17;95.98;98516.27;102205;1321;22702;-82
2022/01/01 05:10:31;;;;;;;4.40;4.00;;;;;;;9.17;96.04;98516.50;102395;1322;22616;-82
2022/01/01 05:12:57;;;;;;;5.40;3.70;;;;;;;9.19;96.13;98518.02;102343;1321;137942;-82
2022/01/01 05:15:24;;;;;;;5.40;4.00;;;;;;;9.20;96.09;98519.65;102663;1322;22587;-82
2022/01/01 05:17:50;;;;;;;4.50;3.70;;;;;;;9.20;96.13;98518.90;102208;1322;138184;-82
2022/01/01 05:20:16;;;;;;;5.40;4.10;;;;;;;9.19;96.01;98518.17;102533;1321;22625;-82
2022/01/01 05:22:42;;;;;;;4.50;3.70;;;;;;;9.20;96.05;98520.75;102798;1321;138005;-82
2022/01/01 05:25:09;;;;;;;5.10;4.50;;;;;;;9.19;96.01;98524.44;102380;1322;22641;-82
2022/01/01 05:27:36;;;;;;;4.60;4.20;;;;;;;9.19;96.16;98518.48;102504;1321;24734;-82
2022/01/01 05:30:07;;;;;;;5.90;4.70;;;;;;;9.18;96.26;98522.87;102364;1321;137639;-81
2022/01/01 05:32:33;;;;;;;5.20;4.40;;;;;;;9.18;96.20;98529.17;102439;1322;22851;-83
2022/01/01 05:34:59;;;;;;;7.20;5.00;;;;;;;9.18;96.07;98527.21;102410;1322;138404;-82
2022/01/01 05:37:26;;;;;;;6.20;4.40;;;;;;;9.19;96.18;98530.79;102482;1321;22594;-82
2022/01/01 05:39:53;;;;;;;5.40;4.80;;;;;;;9.19;96.31;98530.41;102578;1321;23272;-82
2022/01/01 05:42:20;;;;;;;6.80;5.30;;;;;;;9.21;96.26;98533.48;102496;1321;138059;-82
2022/01/01 05:44:46;;;;;;;9.40;5.60;;;;;;;9.21;96.18;98540.08;102725;1321;23218;-81
2022/01/01 05:47:12;;;;;;;7.00;5.50;;;;;;;9.22;96.20;98542.98;102307;1322;138350;-80
2022/01/01 05:49:38;;;;;;;7.10;5.60;;;;;;;9.23;96.11;98545.10;102740;1317;23108;-81
2022/01/01 05:52:05;;;;;;;5.60;5.00;;;;;;;9.21;96.14;98549.64;102407;1321;22594;-84
2022/01/01 05:54:31;;;;;;;7.40;5.80;;;;;;;9.21;96.07;98554.25;102427;1321;137732;-81
2022/01/01 05:56:59;;;;;;;6.50;5.90;;;;;;;9.21;96.20;98553.83;102552;1321;23253;-81
2022/01/01 05:59:26;;;;;;;5.80;5.20;;;;;;;9.22;96.13;98556.66;102516;1320;138436;-81
2022/01/01 06:01:52;;;;;;;7.70;6.10;;;;;;;9.21;96.17;98551.48;102421;1320;23585;-81
2022/01/01 06:04:21;;;;;;;7.70;5.70;;;;;;;9.22;96.20;98556.45;102456;1321;22591;-81
2022/01/01 06:06:48;;;;;;;7.50;5.70;;;;;;;9.23;96.27;98563.20;102504;1321;137832;-81
2022/01/01 06:09:16;;;;;;;6.80;6.10;;;;;;;9.24;96.18;98562.81;102568;1316;25230;-81
2022/01/01 06:11:45;;;;;;;8.40;5.90;;;;;;;9.25;96.27;98557.44;102374;1321;137717;-81
2022/01/01 06:14:16;;;;;;;6.80;6.10;;;;;;;9.25;96.36;98555.65;102811;1321;24283;-81
2022/01/01 06:16:42;;;;;;;8.30;5.70;;;;;;;9.25;96.32;98558.70;102218;1321;138472;-81
2022/01/01 06:19:08;;;;;;;6.70;5.40;;;;;;;9.26;96.48;98563.81;102303;1320;24272;-81
2022/01/01 06:21:34;;;;;;;7.00;5.50;;;;;;;9.27;96.42;98573.52;102314;1316;25249;-81
2022/01/01 06:24:01;;;;;;;5.50;5.00;;;;;;;9.27;96.33;98573.48;102272;1321;137693;-81
2022/01/01 06:26:27;;;;;;;6.90;5.20;;;;;;;9.26;96.41;98573.56;102525;1321;22577;-81
2022/01/01 06:28:53;;;;;;;7.70;5.80;;;;;;;9.27;96.42;98575.31;102681;1321;137925;-81
2022/01/01 06:31:19;;;;;;;5.90;5.00;;;;;;;9.26;96.29;98579.00;102537;1320;22682;-81
2022/01/01 06:33:45;;;;;;;5.40;4.60;;;;;;;9.26;96.43;98579.66;102427;1321;22702;-81
2022/01/01 06:36:26;;;;;;;6.10;4.30;;;;;;;9.27;96.36;98586.91;102390;1322;137703;-81
2022/01/01 06:39:07;;;;;;;6.20;4.50;;;;;;;9.28;96.44;98590.42;102749;1322;22593;-82
2022/01/01 06:41:34;;;;;;;10.40;6.00;;;;;;;9.29;96.41;98590.11;102215;1321;137538;-81
2022/01/01 06:44:00;;;;;;;7.80;5.20;;;;;;;9.31;96.44;98592.98;102623;1320;25369;-81
2022/01/01 06:46:27;;;;;;;7.10;5.40;;;;;;;9.31;96.27;98597.11;102731;1322;23184;-81
2022/01/01 06:48:53;;;;;;;5.40;4.20;;;;;;;9.31;96.26;98598.20;102712;1321;137862;-81
2022/01/01 06:51:19;;;;;;;4.80;4.10;;;;;;;9.30;96.31;98609.48;102549;1322;22782;-81
2022/01/01 06:53:46;;;;;;;4.90;4.20;;;;;;;9.31;96.30;98605.26;102680;1322;137590;-82
2022/01/01 06:56:12;;;;;;;3.70;3.30;;;;;;;9.32;96.37;98611.64;102495;1322;22754;-81
2022/01/01 06:58:39;;;;;;;5.60;4.20;;;;;;;9.33;96.31;98615.86;102465;1321;137863;-81
2022/01/01 07:01:06;;;;;;;5.20;4.00;;;;;;;9.34;96.28;98614.17;102887;1321;25225;-81
2022/01/01 07:03:32;;;;;;;4.60;3.90;;;;;;;9.35;96.09;98615.91;102603;1321;25261;-81
2022/01/01 07:05:58;;;;;;;5.30;4.40;;;;;;;9.35;96.11;98622.38;102557;1321;137678;-80
2022/01/01 07:08:24;;;;;;;5.50;4.60;;;;;;;9.34;95.95;98622.68;102668;1321;25200;-80
2022/01/01 07:10:51;;;;;;;5.80;4.90;;;;;;;9.34;96.14;98623.60;102603;1320;137783;-80
2022/01/01 07:13:17;;;;;;;5.60;4.80;;;;;;;9.35;96.07;98631.62;102572;1322;23895;-81
2022/01/01 07:15:58;;;;;;;6.90;5.00;;;;;;;9.35;95.96;98634.55;102517;1322;22598;-80
2022/01/01 07:18:38;;;;;;;6.80;5.00;;;;;;;9.35;95.91;98638.23;102344;1322;138206;-82
2022/01/01 07:21:05;;;;;;;6.70;5.20;;;;;;;9.34;95.94;98637.67;102689;1319;22611;-82
2022/01/01 07:23:31;;;;;;;6.50;5.80;;;;;;;9.34;96.02;98644.73;102407;1320;137510;-82
2022/01/01 07:25:58;;;;;;;5.80;5.20;;;;;;;9.33;95.83;98644.17;102511;1321;22597;-81
2022/01/01 07:28:24;;;;;;;5.40;4.50;;;;;;;9.31;95.95;98654.85;102395;1322;25312;-82
2022/01/01 07:30:50;;;;;;;4.40;4.00;;;;;;;9.32;96.05;98655.45;102707;1319;137686;-82
2022/01/01 07:33:17;;;;;;;4.70;4.20;;;;;;;9.34;95.98;98661.66;102901;1321;23003;-81
2022/01/01 07:35:43;;;;;;;5.80;4.80;;;;;;;9.36;95.87;98654.52;102462;1322;137362;-82
2022/01/01 07:38:10;;;;;;;5.00;4.00;;;;;;;9.35;95.76;98649.23;102649;1321;22601;-81
2022/01/01 07:40:38;;;;;;;5.30;4.20;;;;;;;9.35;95.86;98655.58;102568;1321;25307;-82
2022/01/01 07:43:17;;;;;;;4.90;3.80;;;;;;;9.36;95.99;98659.38;102493;1321;137598;-82
2022/01/01 07:45:44;;;;;;;5.00;4.50;;;;;;;9.38;95.77;98664.57;102614;1322;22647;-81
2022/01/01 07:48:10;;;;;;;5.30;4.70;;;;;;;9.39;95.59;98665.70;102607;1321;137747;-82
2022/01/01 07:50:37;;;;;;;5.90;4.40;;;;;;;9.39;95.67;98665.52;102527;1322;26432;-81
2022/01/01 07:53:09;;;;;;;5.90;5.30;;;;;;;9.39;95.77;98672.50;102207;1322;137677;-81
2022/01/01 07:55:35;;;;;;;6.90;5.30;;;;;;;9.39;95.69;98669.86;102759;1322;22597;-81
2022/01/01 07:58:02;;;;;;;5.80;5.20;;;;;;;9.37;95.69;98678.64;102504;1316;23111;-81
2022/01/01 08:00:29;;;;;;;7.30;5.40;;;;;;;9.36;95.52;98678.98;102537;1321;137541;-82
2022/01/01 08:02:55;;;;;;;7.00;5.30;;;;;;;9.36;95.71;98684.52;102586;1322;25313;-81
2022/01/01 08:05:21;;;;;;;9.00;6.90;;;;;;;9.35;95.71;98684.77;102102;1320;137753;-81
2022/01/01 08:07:47;;;;;;;6.80;6.10;;;;;;;9.36;95.72;98689.02;102654;1320;22733;-81
2022/01/01 08:10:14;;;;;;;9.30;7.30;;;;;;;9.35;95.62;98693.46;102546;1316;25318;-81
2022/01/01 08:12:41;;;;;;;8.80;6.30;;;;;;;9.37;95.74;98690.15;102459;1321;137567;-81
2022/01/01 08:15:08;;;;;;;9.60;6.70;;;;;;;9.37;95.72;98697.99;102723;1322;22627;-81
2022/01/01 08:17:35;;;;;;;8.70;7.00;;;;;;;9.38;95.75;98699.86;102605;1321;137571;-81
2022/01/01 08:20:26;;;;;;;9.80;7.20;;;;;;;9.38;95.71;98706.64;104103;1328;30725;-81
2022/01/01 08:22:52;;;;;;;9.70;7.20;;;;;;;9.38;95.83;98709.80;104137;1321;137786;-81
2022/01/01 08:25:20;;;;;;;7.90;6.50;;;;;;;9.39;95.74;98708.96;104215;1334;22614;-81
2022/01/01 08:27:46;;;;;;;10.70;7.10;;;;;;;9.42;95.85;98711.81;104118;1325;22560;-82
2022/01/01 08:30:14;;;;;;;8.20;6.90;;;;;;;9.44;95.71;98709.35;103962;1323;137739;-81
2022/01/01 08:32:41;;;;;;;7.80;6.50;;;;;;;9.45;95.58;98706.57;104129;1324;22473;-81
2022/01/01 08:35:08;;;;;;;8.40;6.60;;;;;;;9.46;95.51;98708.44;104144;1322;138052;-81
2022/01/01 08:37:34;;;;;;;8.20;6.90;;;;;;;9.49;95.74;98707.86;104208;1333;22548;-81
2022/01/01 08:40:00;;;;;;;8.10;6.70;;;;;;;9.52;95.59;98717.23;104170;1323;22399;-81
2022/01/01 08:42:27;;;;;;;10.50;6.40;;;;;;;9.54;95.57;98714.64;104160;1321;137779;-81
2022/01/01 08:44:53;;;;;;;9.90;7.00;;;;;;;9.56;95.58;98716.16;104123;1325;22300;-81
2022/01/01 08:47:24;;;;;;;8.80;7.00;;;;;;;9.58;95.58;98721.15;104230;1322;137748;-81
2022/01/01 08:49:52;;;;;;;8.90;6.90;;;;;;;9.59;95.28;98721.76;104083;1334;22564;-81
2022/01/01 08:52:18;;;;;;;7.80;6.50;;;;;;;9.60;95.33;98727.23;104221;1334;23097;-81
2022/01/01 08:54:44;;;;;;;9.20;7.30;;;;;;;9.62;95.25;98729.76;104139;1322;137642;-81
2022/01/01 08:57:10;;;;;;;9.90;6.90;;;;;;;9.64;95.23;98729.80;104334;1322;22446;-82
2022/01/01 08:59:37;;;;;;;8.50;7.30;;;;;;;9.65;95.04;98730.95;104031;1325;137150;-81
2022/01/01 09:02:03;;;;;;;8.80;7.10;;;;;;;9.65;95.19;98730.08;104129;1334;22840;-81
2022/01/01 09:04:30;;;;;;;8.60;6.60;;;;;;;9.64;94.98;98727.45;104225;1333;22416;-81
2022/01/01 09:06:56;;;;;;;9.10;7.00;;;;;;;9.64;95.08;98730.93;104165;1319;137705;-81
2022/01/01 09:09:22;;;;;;;8.80;6.80;;;;;;;9.65;95.04;98733.30;104171;1323;22497;-81
2022/01/01 09:11:48;;;;;;;8.30;6.70;;;;;;;9.68;94.94;98733.27;104135;1323;137902;-81
2022/01/01 09:14:15;;;;;;;7.80;6.90;;;;;;;9.70;94.92;98740.67;104013;1322;138110;-85
2022/01/01 09:16:56;;;;;;;7.80;6.80;;;;;;;9.72;94.90;98739.95;104125;1334;22543;-82
2022/01/01 09:19:22;;;;;;;9.50;7.00;;;;;;;9.73;95.22;98743.11;104045;1322;137642;-79
2022/01/01 09:21:48;;;;;;;9.60;7.00;;;;;;;9.74;95.01;98748.36;104110;1329;22495;-80
2022/01/01 09:24:16;;;;;;;9.90;6.60;;;;;;;9.74;95.09;98748.45;104046;1335;22277;-79
2022/01/01 09:26:42;;;;;;;8.40;6.50;;;;;;;9.74;94.82;98745.64;104004;1325;137697;-82
2022/01/01 09:29:10;;;;;;;8.20;6.30;;;;;;;9.74;94.97;98750.66;104188;1322;22595;-83
2022/01/01 09:31:38;;;;;;;8.10;6.20;;;;;;;9.75;94.86;98753.69;104119;1321;138292;-80
2022/01/01 09:34:05;;;;;;;8.00;6.20;;;;;;;9.78;94.71;98752.98;104191;1332;22560;-81
2022/01/01 09:36:33;;;;;;;7.80;5.40;;;;;;;9.80;94.75;98755.27;104217;1323;22213;-82
2022/01/01 09:38:59;;;;;;;5.50;4.30;;;;;;;9.82;94.71;98759.02;104081;1333;138442;-80
2022/01/01 09:41:26;;;;;;;7.10;4.60;;;;;;;9.83;94.86;98756.29;104182;1320;23545;-77
2022/01/01 09:43:54;;;;;;;6.30;4.50;;;;;;;9.84;94.62;98759.34;104092;1333;137122;-78
2022/01/01 09:46:37;;;;;;;6.00;4.50;;;;;;;9.83;94.84;98757.97;104110;1334;22628;-77
2022/01/01 09:49:03;;;;;;;4.70;4.10;;;;;;;9.83;94.42;98764.71;104210;1322;22538;-79
2022/01/01 09:51:29;;;;;;;6.10;4.60;;;;;;;9.82;94.67;98766.19;104054;1333;137757;-80
2022/01/01 09:53:56;;;;;;;5.70;3.90;;;;;;;9.81;94.52;98768.88;104194;1334;23051;-79
2022/01/01 09:56:23;;;;;;;5.40;4.10;;;;;;;9.79;94.70;98766.06;104014;1325;138103;-80
2022/01/01 09:58:49;;;;;;;5.10;4.10;;;;;;;9.81;94.62;98767.77;104208;1322;23580;-79
2022/01/01 10:01:16;;;;;;;5.50;4.50;;;;;;;9.82;94.52;98772.01;104199;1323;22586;-80
2022/01/01 10:03:45;;;;;;;5.70;4.30;;;;;;;9.82;94.68;98774.47;104053;1332;137238;-79
2022/01/01 10:06:14;;;;;;;6.60;5.70;;;;;;;9.82;94.47;98778.27;104220;1323;23689;-81
2022/01/01 10:08:44;;;;;;;7.50;5.70;;;;;;;9.82;94.51;98782.96;104077;1324;137540;-81
2022/01/01 10:11:11;;;;;;;6.80;5.00;;;;;;;9.83;94.40;98782.54;104212;1324;22542;-81
2022/01/01 10:13:39;;;;;;;8.40;6.10;;;;;;;9.84;94.38;98780.55;104008;1334;138118;-81
2022/01/01 10:16:08;;;;;;;8.00;5.10;;;;;;;9.86;94.34;98777.47;104099;1333;22486;-81
2022/01/01 10:18:37;;;;;;;7.40;5.10;;;;;;;9.87;94.32;98774.27;104128;1325;22487;-81
2022/01/01 10:21:10;;;;;;;6.10;5.40;;;;;;;9.88;94.30;98783.83;104116;1322;136926;-81
2022/01/01 10:23:44;;;;;;;7.00;6.00;;;;;;;9.89;94.06;98776.88;104089;1334;22581;-81
2022/01/01 10:29:14;;;;;;;9.30;7.00;;;;;;;9.92;93.97;98782.18;104131;1334;22549;-81
2022/01/01 10:32:03;;;;;;;9.40;6.30;;;;;;;9.92;93.99;98782.73;104033;1323;138211;-81
2022/01/01 10:34:33;;;;;;;8.00;6.50;;;;;;;9.91;94.03;98785.27;104166;1332;22400;-83
2022/01/01 10:37:01;;;;;;;8.50;6.90;;;;;;;9.92;94.17;98783.61;104167;1333;22640;-84
2022/01/01 10:39:28;;;;;;;8.60;7.40;;;;;;;9.93;93.91;98784.71;104156;1323;136999;-84
2022/01/01 10:42:01;;;;;;;9.30;7.40;;;;;;;9.94;93.85;98780.40;104106;1324;22553;-84
2022/01/01 10:44:31;;;;;;;10.10;7.10;;;;;;;9.95;93.85;98777.70;103970;1334;137757;-84
2022/01/01 10:46:59;;;;;;;9.40;7.20;;;;;;;9.99;93.86;98775.39;104231;1333;23205;-83
2022/01/01 10:49:36;;;;;;;10.20;7.30;;;;;;;10.00;93.89;98770.04;104023;1325;137554;-83
2022/01/01 10:52:28;;;;;;;9.60;7.90;;;;;;;10.02;93.95;98770.73;104195;1324;23071;-84
2022/01/01 10:54:59;;;;;;;9.60;7.50;;;;;;;10.03;93.88;98771.27;104226;1324;23187;-83
2022/01/01 10:57:39;;;;;;;9.90;7.40;;;;;;;10.04;93.81;98773.04;104092;1325;138043;-83
2022/01/01 11:00:08;;;;;;;8.30;6.90;;;;;;;10.07;93.82;98772.87;104204;1322;22558;-84
2022/01/01 11:02:36;;;;;;;7.80;6.50;;;;;;;10.08;93.72;98779.71;104049;1327;138007;-84
2022/01/01 11:05:03;;;;;;;11.20;8.00;;;;;;;10.09;93.69;98782.17;104081;1334;23193;-84
2022/01/01 11:07:31;;;;;;;10.90;7.40;;;;;;;10.07;93.83;98778.95;104153;1325;137392;-84
2022/01/01 11:09:58;;;;;;;10.40;8.00;;;;;;;10.05;93.74;98778.33;104268;1321;22590;-84
2022/01/01 11:12:27;;;;;;;11.20;8.20;;;;;;;10.04;93.83;98777.70;104161;1325;22495;-84
2022/01/01 11:14:55;;;;;;;9.50;6.60;;;;;;;10.04;93.76;98776.45;104004;1325;138108;-84
2022/01/01 11:17:23;;;;;;;7.30;5.60;;;;;;;10.04;93.72;98774.71;104260;1321;22530;-84
2022/01/01 11:19:50;;;;;;;8.20;5.90;;;;;;;10.04;93.58;98770.57;104068;1333;137649;-84
2022/01/01 11:22:18;;;;;;;8.20;6.60;;;;;;;10.04;93.84;98771.41;104159;1333;23248;-84
2022/01/01 11:24:45;;;;;;;7.30;6.20;;;;;;;10.03;93.84;98774.85;104062;1334;22632;-83
2022/01/01 11:27:12;;;;;;;7.00;6.10;;;;;;;10.05;93.96;98777.30;104173;1322;137997;-83
2022/01/01 11:29:49;;;;;;;8.10;5.80;;;;;;;10.07;93.83;98775.52;104149;1325;22528;-83
2022/01/01 11:32:18;;;;;;;7.80;5.80;;;;;;;10.10;93.92;98773.48;104015;1325;137950;-83
2022/01/01 11:34:47;;;;;;;7.10;5.60;;;;;;;10.14;93.92;98772.43;104088;1334;22669;-83
2022/01/01 11:37:16;;;;;;;10.30;6.00;;;;;;;10.15;93.53;98771.87;104255;1323;23077;-83